createdAt,value
2022-12-03T00:00:20.467Z,1017.55
2022-12-03T00:01:20.433Z,1017.51
2022-12-03T00:02:20.563Z,1017.50
2022-12-03T00:03:20.620Z,1017.52
2022-12-03T00:04:20.351Z,1017.53
2022-12-03T00:05:20.322Z,1017.52
2022-12-03T00:06:20.319Z,1017.51
2022-12-03T00:07:20.284Z,1017.51
2022-12-03T00:08:20.239Z,1017.50
2022-12-03T00:09:20.207Z,1017.52
2022-12-03T00:10:20.201Z,1017.52
2022-12-03T00:11:20.153Z,1017.53
2022-12-03T00:12:20.125Z,1017.49
2022-12-03T00:13:20.095Z,1017.53
2022-12-03T00:14:20.072Z,1017.51
2022-12-03T00:15:20.041Z,1017.51
2022-12-03T00:16:20.108Z,1017.53
2022-12-03T00:17:19.980Z,1017.52
2022-12-03T00:18:19.951Z,1017.48
2022-12-03T00:19:19.925Z,1017.50
2022-12-03T00:20:19.901Z,1017.53
2022-12-03T00:21:19.868Z,1017.53
2022-12-03T00:22:19.863Z,1017.46
2022-12-03T00:23:19.812Z,1017.52
2022-12-03T00:24:19.785Z,1017.42
2022-12-03T00:25:19.754Z,1017.48
2022-12-03T00:26:19.726Z,1017.47
2022-12-03T00:27:19.694Z,1017.46
2022-12-03T00:28:19.673Z,1017.45
2022-12-03T00:29:19.641Z,1017.45
2022-12-03T00:30:19.610Z,1017.41
2022-12-03T00:31:19.652Z,1017.40
2022-12-03T00:32:19.560Z,1017.41
2022-12-03T00:33:19.527Z,1017.44
2022-12-03T00:34:19.498Z,1017.41
2022-12-03T00:35:19.470Z,1017.47
2022-12-03T00:36:19.447Z,1017.46
2022-12-03T00:37:19.412Z,1017.42
2022-12-03T00:38:19.410Z,1017.42
2022-12-03T00:39:19.357Z,1017.40
2022-12-03T00:40:19.331Z,1017.41
2022-12-03T00:41:19.302Z,1017.42
2022-12-03T00:42:19.271Z,1017.38
2022-12-03T00:43:19.241Z,1017.41
2022-12-03T00:44:19.233Z,1017.33
2022-12-03T00:45:19.185Z,1017.36
2022-12-03T00:46:21.579Z,1017.38
2022-12-03T00:47:19.131Z,1017.40
2022-12-03T00:48:19.108Z,1017.41
2022-12-03T00:49:19.069Z,1017.40
2022-12-03T00:50:19.050Z,1017.39
2022-12-03T00:51:19.012Z,1017.41
2022-12-03T00:52:18.989Z,1017.46
2022-12-03T00:53:18.955Z,1017.41
2022-12-03T00:54:18.952Z,1017.41
2022-12-03T00:55:18.901Z,1017.44
2022-12-03T00:56:18.877Z,1017.40
2022-12-03T00:57:18.839Z,1017.42
2022-12-03T00:58:18.817Z,1017.38
2022-12-03T00:59:18.789Z,1017.44
2022-12-03T01:00:18.760Z,1017.41
2022-12-03T01:01:18.856Z,1017.41
2022-12-03T01:02:18.778Z,1017.46
2022-12-03T01:03:18.674Z,1017.45
2022-12-03T01:04:18.749Z,1017.42
2022-12-03T01:05:18.682Z,1017.45
2022-12-03T01:06:18.592Z,1017.45
2022-12-03T01:07:18.565Z,1017.43
2022-12-03T01:08:18.535Z,1017.46
2022-12-03T01:09:18.509Z,1017.44
2022-12-03T01:10:18.509Z,1017.49
2022-12-03T01:11:18.451Z,1017.48
2022-12-03T01:12:18.423Z,1017.45
2022-12-03T01:13:18.391Z,1017.49
2022-12-03T01:14:18.363Z,1017.48
2022-12-03T01:15:18.334Z,1017.47
2022-12-03T01:16:18.388Z,1017.48
2022-12-03T01:17:18.279Z,1017.47
2022-12-03T01:18:18.252Z,1017.49
2022-12-03T01:19:18.220Z,1017.49
2022-12-03T01:20:18.195Z,1017.49
2022-12-03T01:21:18.164Z,1017.46
2022-12-03T01:22:18.140Z,1017.47
2022-12-03T01:23:18.109Z,1017.48
2022-12-03T01:24:18.082Z,1017.44
2022-12-03T01:25:18.051Z,1017.49
2022-12-03T01:26:18.050Z,1017.49
2022-12-03T01:27:17.997Z,1017.53
2022-12-03T01:28:17.966Z,1017.54
2022-12-03T01:29:17.938Z,1017.55
2022-12-03T01:30:17.913Z,1017.54
2022-12-03T01:31:17.992Z,1017.54
2022-12-03T01:32:17.859Z,1017.55
2022-12-03T01:33:17.822Z,1017.55
2022-12-03T01:34:17.800Z,1017.54
2022-12-03T01:35:17.777Z,1017.48
2022-12-03T01:36:17.749Z,1017.54
2022-12-03T01:37:17.715Z,1017.49
2022-12-03T01:38:17.689Z,1017.45
2022-12-03T01:39:17.658Z,1017.47
2022-12-03T01:40:17.638Z,1017.41
2022-12-03T01:41:17.599Z,1017.45
2022-12-03T01:42:17.604Z,1017.47
2022-12-03T01:43:17.541Z,1017.43
2022-12-03T01:44:17.522Z,1017.42
2022-12-03T01:45:17.488Z,1017.46
2022-12-03T01:46:17.508Z,1017.44
2022-12-03T01:47:17.429Z,1017.42
2022-12-03T01:48:17.405Z,1017.42
2022-12-03T01:49:17.378Z,1017.48
2022-12-03T01:50:17.349Z,1017.44
2022-12-03T01:51:17.320Z,1017.45
2022-12-03T01:52:17.289Z,1017.44
2022-12-03T01:53:17.260Z,1017.48
2022-12-03T01:54:17.233Z,1017.47
2022-12-03T01:55:17.201Z,1017.46
2022-12-03T01:56:17.178Z,1017.45
2022-12-03T01:57:17.144Z,1017.46
2022-12-03T01:58:17.145Z,1017.47
2022-12-03T01:59:17.091Z,1017.43
2022-12-03T02:00:17.066Z,1017.44
2022-12-03T02:01:17.123Z,1017.49
2022-12-03T02:02:17.144Z,1017.48
2022-12-03T02:03:16.980Z,1017.53
2022-12-03T02:04:17.006Z,1017.51
2022-12-03T02:05:16.917Z,1017.45
2022-12-03T02:06:16.891Z,1017.49
2022-12-03T02:07:16.862Z,1017.54
2022-12-03T02:08:16.938Z,1017.52
2022-12-03T02:09:16.807Z,1017.51
2022-12-03T02:10:16.784Z,1017.53
2022-12-03T02:11:16.750Z,1017.49
2022-12-03T02:12:16.725Z,1017.50
2022-12-03T02:13:16.699Z,1017.50
2022-12-03T02:14:16.693Z,1017.46
2022-12-03T02:15:16.638Z,1017.49
2022-12-03T02:16:16.650Z,1017.47
2022-12-03T02:17:16.585Z,1017.49
2022-12-03T02:18:16.562Z,1017.51
2022-12-03T02:19:16.527Z,1017.53
2022-12-03T02:20:16.502Z,1017.50
2022-12-03T02:21:16.471Z,1017.48
2022-12-03T02:22:16.438Z,1017.49
2022-12-03T02:23:16.411Z,1017.47
2022-12-03T02:24:16.392Z,1017.47
2022-12-03T02:25:16.356Z,1017.49
2022-12-03T02:26:16.329Z,1017.51
2022-12-03T02:27:16.304Z,1017.45
2022-12-03T02:28:16.276Z,1017.49
2022-12-03T02:29:16.245Z,1017.44
2022-12-03T02:30:16.238Z,1017.43
2022-12-03T02:31:16.216Z,1017.46
2022-12-03T02:32:16.157Z,1017.41
2022-12-03T02:33:16.129Z,1017.44
2022-12-03T02:34:16.104Z,1017.38
2022-12-03T02:35:16.080Z,1017.39
2022-12-03T02:36:16.045Z,1017.40
2022-12-03T02:37:16.016Z,1017.37
2022-12-03T02:38:16.016Z,1017.39
2022-12-03T02:39:15.961Z,1017.33
2022-12-03T02:40:15.936Z,1017.35
2022-12-03T02:41:15.905Z,1017.37
2022-12-03T02:42:15.881Z,1017.33
2022-12-03T02:43:15.847Z,1017.36
2022-12-03T02:44:15.820Z,1017.34
2022-12-03T02:45:15.793Z,1017.32
2022-12-03T02:46:15.809Z,1017.35
2022-12-03T02:47:15.738Z,1017.35
2022-12-03T02:48:15.704Z,1017.35
2022-12-03T02:49:15.683Z,1017.36
2022-12-03T02:50:15.650Z,1017.36
2022-12-03T02:51:15.620Z,1017.34
2022-12-03T02:52:15.596Z,1017.34
2022-12-03T02:53:15.566Z,1017.32
2022-12-03T02:54:15.544Z,1017.37
2022-12-03T02:55:15.513Z,1017.35
2022-12-03T02:56:15.483Z,1017.36
2022-12-03T02:57:15.452Z,1017.39
2022-12-03T02:58:15.428Z,1017.35
2022-12-03T02:59:15.401Z,1017.37
2022-12-03T03:00:15.377Z,1017.33
2022-12-03T03:01:15.481Z,1017.34
2022-12-03T03:02:15.411Z,1017.30
2022-12-03T03:03:15.285Z,1017.35
2022-12-03T03:04:15.256Z,1017.33
2022-12-03T03:05:15.230Z,1017.31
2022-12-03T03:06:15.199Z,1017.33
2022-12-03T03:07:15.172Z,1017.36
2022-12-03T03:08:15.191Z,1017.33
2022-12-03T03:09:15.115Z,1017.28
2022-12-03T03:10:15.095Z,1017.32
2022-12-03T03:11:15.061Z,1017.33
2022-12-03T03:12:15.036Z,1017.33
2022-12-03T03:13:14.999Z,1017.33
2022-12-03T03:14:14.979Z,1017.30
2022-12-03T03:15:14.945Z,1017.32
2022-12-03T03:16:15.026Z,1017.31
2022-12-03T03:17:14.885Z,1017.30
2022-12-03T03:18:14.883Z,1017.27
2022-12-03T03:19:14.830Z,1017.28
2022-12-03T03:20:14.810Z,1017.27
2022-12-03T03:21:14.783Z,1017.29
2022-12-03T03:22:14.749Z,1017.27
2022-12-03T03:23:14.722Z,1017.21
2022-12-03T03:24:14.694Z,1017.26
2022-12-03T03:25:14.659Z,1017.20
2022-12-03T03:26:14.651Z,1017.21
2022-12-03T03:27:14.603Z,1017.24
2022-12-03T03:28:14.581Z,1017.16
2022-12-03T03:29:14.546Z,1017.21
2022-12-03T03:30:14.573Z,1017.26
2022-12-03T03:31:14.548Z,1017.23
2022-12-03T03:32:14.469Z,1017.23
2022-12-03T03:33:14.435Z,1017.23
2022-12-03T03:34:14.429Z,1017.23
2022-12-03T03:35:14.387Z,1017.27
2022-12-03T03:36:14.355Z,1017.24
2022-12-03T03:37:14.327Z,1017.23
2022-12-03T03:38:14.293Z,1017.21
2022-12-03T03:39:14.263Z,1017.20
2022-12-03T03:40:14.240Z,1017.25
2022-12-03T03:41:14.210Z,1017.23
2022-12-03T03:42:14.179Z,1017.23
2022-12-03T03:43:14.157Z,1017.21
2022-12-03T03:44:14.127Z,1017.16
2022-12-03T03:45:14.095Z,1017.16
2022-12-03T03:46:14.159Z,1017.16
2022-12-03T03:47:14.034Z,1017.13
2022-12-03T03:48:14.011Z,1017.16
2022-12-03T03:49:13.982Z,1017.11
2022-12-03T03:50:13.974Z,1017.17
2022-12-03T03:51:13.922Z,1017.11
2022-12-03T03:52:13.897Z,1017.15
2022-12-03T03:53:13.864Z,1017.09
2022-12-03T03:54:13.841Z,1017.10
2022-12-03T03:55:13.811Z,1017.12
2022-12-03T03:56:13.788Z,1017.10
2022-12-03T03:57:13.764Z,1017.04
2022-12-03T03:58:13.731Z,1017.00
2022-12-03T03:59:13.696Z,1017.05
2022-12-03T04:00:13.670Z,1017.03
2022-12-03T04:01:13.741Z,1017.03
2022-12-03T04:02:13.613Z,1017.03
2022-12-03T04:03:13.590Z,1017.00
2022-12-03T04:04:13.602Z,1016.99
2022-12-03T04:05:13.532Z,1016.97
2022-12-03T04:06:13.519Z,1017.01
2022-12-03T04:07:13.472Z,1016.91
2022-12-03T04:08:13.567Z,1016.92
2022-12-03T04:09:13.410Z,1016.93
2022-12-03T04:10:13.380Z,1016.91
2022-12-03T04:11:13.362Z,1016.92
2022-12-03T04:12:13.323Z,1016.91
2022-12-03T04:13:13.300Z,1016.94
2022-12-03T04:14:13.266Z,1016.91
2022-12-03T04:15:13.244Z,1016.90
2022-12-03T04:16:13.291Z,1016.93
2022-12-03T04:17:13.190Z,1016.89
2022-12-03T04:18:13.165Z,1016.89
2022-12-03T04:19:13.128Z,1016.93
2022-12-03T04:20:13.097Z,1016.87
2022-12-03T04:21:13.070Z,1016.90
2022-12-03T04:22:13.060Z,1016.88
2022-12-03T04:23:13.017Z,1016.89
2022-12-03T04:24:12.983Z,1016.90
2022-12-03T04:25:12.964Z,1016.84
2022-12-03T04:26:12.927Z,1016.82
2022-12-03T04:27:12.901Z,1016.82
2022-12-03T04:28:12.874Z,1016.87
2022-12-03T04:29:12.844Z,1016.84
2022-12-03T04:30:12.816Z,1016.83
2022-12-03T04:31:12.842Z,1016.79
2022-12-03T04:32:12.757Z,1016.85
2022-12-03T04:33:12.734Z,1016.81
2022-12-03T04:34:12.699Z,1016.84
2022-12-03T04:35:12.734Z,1016.82
2022-12-03T04:36:12.646Z,1016.78
2022-12-03T04:37:12.621Z,1016.76
2022-12-03T04:38:12.613Z,1016.82
2022-12-03T04:39:12.561Z,1016.75
2022-12-03T04:40:12.528Z,1016.78
2022-12-03T04:41:12.505Z,1016.84
2022-12-03T04:42:12.474Z,1016.79
2022-12-03T04:43:12.446Z,1016.81
2022-12-03T04:44:12.414Z,1016.83
2022-12-03T04:45:12.389Z,1016.86
2022-12-03T04:46:12.443Z,1016.88
2022-12-03T04:47:12.333Z,1016.79
2022-12-03T04:48:12.305Z,1016.83
2022-12-03T04:49:12.274Z,1016.82
2022-12-03T04:50:12.244Z,1016.83
2022-12-03T04:51:12.221Z,1016.86
2022-12-03T04:52:12.187Z,1016.88
2022-12-03T04:53:12.162Z,1016.90
2022-12-03T04:54:12.162Z,1016.88
2022-12-03T04:55:12.103Z,1016.88
2022-12-03T04:56:12.073Z,1016.88
2022-12-03T04:57:12.052Z,1016.90
2022-12-03T04:58:12.021Z,1016.88
2022-12-03T04:59:15.896Z,1016.95
2022-12-03T05:00:11.959Z,1016.94
2022-12-03T05:01:11.974Z,1016.93
2022-12-03T05:02:11.970Z,1016.99
2022-12-03T05:03:11.878Z,1016.95
2022-12-03T05:04:11.846Z,1017.00
2022-12-03T05:05:11.824Z,1017.02
2022-12-03T05:06:11.792Z,1017.07
2022-12-03T05:07:11.768Z,1017.00
2022-12-03T05:08:11.879Z,1017.03
2022-12-03T05:09:11.707Z,1017.03
2022-12-03T05:10:11.701Z,1017.04
2022-12-03T05:11:11.653Z,1017.05
2022-12-03T05:12:11.619Z,1017.05
2022-12-03T05:13:11.596Z,1017.05
2022-12-03T05:14:11.563Z,1017.04
2022-12-03T05:15:11.537Z,1017.06
2022-12-03T05:16:11.554Z,1017.01
2022-12-03T05:17:11.552Z,1017.03
2022-12-03T05:18:11.450Z,1017.05
2022-12-03T05:19:11.423Z,1017.09
2022-12-03T05:20:11.393Z,1017.01
2022-12-03T05:21:11.366Z,1017.03
2022-12-03T05:22:11.334Z,1017.02
2022-12-03T05:23:11.312Z,1017.02
2022-12-03T05:24:11.288Z,1017.08
2022-12-03T05:25:11.251Z,1017.01
2022-12-03T05:26:11.246Z,1017.05
2022-12-03T05:27:11.197Z,1017.04
2022-12-03T05:28:11.164Z,1017.01
2022-12-03T05:29:11.139Z,1016.98
2022-12-03T05:30:11.111Z,1016.98
2022-12-03T05:31:11.229Z,1016.96
2022-12-03T05:32:11.050Z,1016.97
2022-12-03T05:33:11.023Z,1017.00
2022-12-03T05:34:10.993Z,1016.98
2022-12-03T05:35:10.968Z,1016.96
2022-12-03T05:36:10.937Z,1016.98
2022-12-03T05:37:10.910Z,1016.97
2022-12-03T05:38:10.877Z,1016.94
2022-12-03T05:39:10.853Z,1016.94
2022-12-03T05:40:10.821Z,1016.93
2022-12-03T05:41:10.799Z,1016.95
2022-12-03T05:42:10.784Z,1016.94
2022-12-03T05:43:10.740Z,1016.94
2022-12-03T05:44:10.706Z,1016.88
2022-12-03T05:45:10.695Z,1016.87
2022-12-03T05:46:10.728Z,1016.88
2022-12-03T05:47:10.626Z,1016.89
2022-12-03T05:48:10.596Z,1016.87
2022-12-03T05:49:10.567Z,1016.86
2022-12-03T05:50:10.545Z,1016.85
2022-12-03T05:51:10.509Z,1016.91
2022-12-03T05:52:10.480Z,1016.90
2022-12-03T05:53:10.455Z,1016.84
2022-12-03T05:54:10.421Z,1016.85
2022-12-03T05:55:10.398Z,1016.82
2022-12-03T05:56:10.367Z,1016.81
2022-12-03T05:57:10.343Z,1016.85
2022-12-03T05:58:10.327Z,1016.84
2022-12-03T05:59:10.286Z,1016.84
2022-12-03T06:00:10.255Z,1016.86
2022-12-03T06:01:10.230Z,1016.84
2022-12-03T06:02:10.239Z,1016.86
2022-12-03T06:03:10.440Z,1016.85
2022-12-03T06:04:10.141Z,1016.86
2022-12-03T06:05:10.114Z,1016.84
2022-12-03T06:06:10.084Z,1016.85
2022-12-03T06:07:13.787Z,1016.85
2022-12-03T06:08:10.083Z,1016.82
2022-12-03T06:09:09.994Z,1016.83
2022-12-03T06:10:09.967Z,1016.81
2022-12-03T06:11:09.943Z,1016.79
2022-12-03T06:12:09.910Z,1016.80
2022-12-03T06:13:09.881Z,1016.79
2022-12-03T06:14:09.876Z,1016.80
2022-12-03T06:15:09.826Z,1016.78
2022-12-03T06:16:09.813Z,1016.79
2022-12-03T06:17:09.770Z,1016.79
2022-12-03T06:18:09.734Z,1016.78
2022-12-03T06:19:09.708Z,1016.78
2022-12-03T06:20:09.677Z,1016.78
2022-12-03T06:21:09.661Z,1016.76
2022-12-03T06:22:09.623Z,1016.81
2022-12-03T06:23:09.596Z,1016.77
2022-12-03T06:24:09.566Z,1016.76
2022-12-03T06:25:09.543Z,1016.77
2022-12-03T06:26:09.510Z,1016.80
2022-12-03T06:27:09.491Z,1016.78
2022-12-03T06:28:09.451Z,1016.74
2022-12-03T06:29:09.428Z,1016.77
2022-12-03T06:30:09.414Z,1016.75
2022-12-03T06:31:09.468Z,1016.72
2022-12-03T06:32:09.341Z,1016.70
2022-12-03T06:33:09.311Z,1016.73
2022-12-03T06:34:09.279Z,1016.76
2022-12-03T06:35:09.256Z,1016.76
2022-12-03T06:36:09.224Z,1016.77
2022-12-03T06:37:09.198Z,1016.79
2022-12-03T06:38:09.163Z,1016.76
2022-12-03T06:39:09.145Z,1016.82
2022-12-03T06:40:09.120Z,1016.79
2022-12-03T06:41:09.085Z,1016.79
2022-12-03T06:42:09.052Z,1016.82
2022-12-03T06:43:09.023Z,1016.80
2022-12-03T06:44:08.995Z,1016.80
2022-12-03T06:45:08.971Z,1016.84
2022-12-03T06:46:09.015Z,1016.83
2022-12-03T06:47:08.916Z,1016.78
2022-12-03T06:48:08.881Z,1016.78
2022-12-03T06:49:08.859Z,1016.81
2022-12-03T06:50:08.821Z,1016.85
2022-12-03T06:51:08.802Z,1016.82
2022-12-03T06:52:08.765Z,1016.82
2022-12-03T06:53:08.736Z,1016.79
2022-12-03T06:54:08.704Z,1016.78
2022-12-03T06:55:08.685Z,1016.79
2022-12-03T06:56:08.647Z,1016.80
2022-12-03T06:57:08.628Z,1016.80
2022-12-03T06:58:08.596Z,1016.80
2022-12-03T06:59:08.568Z,1016.78
2022-12-03T07:00:08.546Z,1016.81
2022-12-03T07:01:08.514Z,1016.80
2022-12-03T07:02:08.569Z,1016.81
2022-12-03T07:03:08.494Z,1016.81
2022-12-03T07:04:08.423Z,1016.77
2022-12-03T07:05:08.405Z,1016.78
2022-12-03T07:06:08.367Z,1016.76
2022-12-03T07:07:08.341Z,1016.74
2022-12-03T07:08:08.369Z,1016.77
2022-12-03T07:09:08.283Z,1016.75
2022-12-03T07:10:08.253Z,1016.70
2022-12-03T07:11:08.223Z,1016.70
2022-12-03T07:12:08.199Z,1016.67
2022-12-03T07:13:08.164Z,1016.69
2022-12-03T07:14:08.145Z,1016.72
2022-12-03T07:15:08.113Z,1016.73
2022-12-03T07:16:08.166Z,1016.76
2022-12-03T07:17:08.068Z,1016.72
2022-12-03T07:18:08.037Z,1016.70
2022-12-03T07:19:07.999Z,1016.70
2022-12-03T07:20:07.966Z,1016.68
2022-12-03T07:21:07.941Z,1016.68
2022-12-03T07:22:07.915Z,1016.69
2022-12-03T07:23:07.885Z,1016.71
2022-12-03T07:24:07.850Z,1016.75
2022-12-03T07:25:07.825Z,1016.71
2022-12-03T07:26:07.798Z,1016.73
2022-12-03T07:27:07.771Z,1016.67
2022-12-03T07:28:07.738Z,1016.70
2022-12-03T07:29:07.715Z,1016.67
2022-12-03T07:30:07.687Z,1016.68
2022-12-03T07:31:07.686Z,1016.70
2022-12-03T07:32:07.619Z,1016.67
2022-12-03T07:33:07.591Z,1016.72
2022-12-03T07:34:07.596Z,1016.73
2022-12-03T07:35:07.540Z,1016.72
2022-12-03T07:36:07.505Z,1016.70
2022-12-03T07:37:07.479Z,1016.70
2022-12-03T07:38:07.452Z,1016.65
2022-12-03T07:39:07.427Z,1016.65
2022-12-03T07:40:07.394Z,1016.68
2022-12-03T07:41:07.365Z,1016.68
2022-12-03T07:42:07.338Z,1016.73
2022-12-03T07:43:07.313Z,1016.69
2022-12-03T07:44:12.532Z,1016.67
2022-12-03T07:45:07.255Z,1016.72
2022-12-03T07:46:07.221Z,1016.72
2022-12-03T07:47:07.279Z,1016.69
2022-12-03T07:48:07.168Z,1016.69
2022-12-03T07:49:07.138Z,1016.71
2022-12-03T07:50:07.141Z,1016.68
2022-12-03T07:51:07.086Z,1016.71
2022-12-03T07:52:07.060Z,1016.69
2022-12-03T07:53:07.033Z,1016.69
2022-12-03T07:54:06.990Z,1016.72
2022-12-03T07:55:06.987Z,1016.71
2022-12-03T07:56:06.927Z,1016.74
2022-12-03T07:57:06.907Z,1016.74
2022-12-03T07:58:06.875Z,1016.73
2022-12-03T07:59:06.856Z,1016.68
2022-12-03T08:00:06.824Z,1016.70
2022-12-03T08:01:06.879Z,1016.71
2022-12-03T08:02:06.883Z,1016.69
2022-12-03T08:03:06.744Z,1016.72
2022-12-03T08:04:06.708Z,1016.70
2022-12-03T08:05:06.685Z,1016.68
2022-12-03T08:06:06.665Z,1016.66
2022-12-03T08:07:06.633Z,1016.68
2022-12-03T08:08:06.680Z,1016.66
2022-12-03T08:09:06.574Z,1016.68
2022-12-03T08:10:06.533Z,1016.65
2022-12-03T08:11:06.510Z,1016.65
2022-12-03T08:12:06.482Z,1016.66
2022-12-03T08:13:06.454Z,1016.65
2022-12-03T08:14:06.421Z,1016.68
2022-12-03T08:15:06.400Z,1016.68
2022-12-03T08:16:06.395Z,1016.66
2022-12-03T08:17:06.334Z,1016.68
2022-12-03T08:18:06.304Z,1016.68
2022-12-03T08:19:06.279Z,1016.70
2022-12-03T08:20:06.251Z,1016.68
2022-12-03T08:21:06.219Z,1016.67
2022-12-03T08:22:06.213Z,1016.67
2022-12-03T08:23:06.166Z,1016.65
2022-12-03T08:24:06.139Z,1016.64
2022-12-03T08:25:06.109Z,1016.65
2022-12-03T08:26:06.078Z,1016.74
2022-12-03T08:27:06.052Z,1016.68
2022-12-03T08:28:06.022Z,1016.68
2022-12-03T08:29:05.995Z,1016.69
2022-12-03T08:30:05.963Z,1016.70
2022-12-03T08:31:05.941Z,1016.68
2022-12-03T08:32:05.978Z,1016.68
2022-12-03T08:33:05.878Z,1016.69
2022-12-03T08:34:05.858Z,1016.65
2022-12-03T08:35:05.832Z,1016.68
2022-12-03T08:36:05.795Z,1016.63
2022-12-03T08:37:05.767Z,1016.67
2022-12-03T08:38:05.756Z,1016.63
2022-12-03T08:39:05.711Z,1016.68
2022-12-03T08:40:05.682Z,1016.65
2022-12-03T08:41:05.651Z,1016.66
2022-12-03T08:42:09.319Z,1016.64
2022-12-03T08:43:05.596Z,1016.69
2022-12-03T08:44:05.563Z,1016.67
2022-12-03T08:45:05.531Z,1016.70
2022-12-03T08:46:05.600Z,1016.72
2022-12-03T08:47:05.479Z,1016.74
2022-12-03T08:48:05.453Z,1016.71
2022-12-03T08:49:05.423Z,1016.71
2022-12-03T08:50:05.399Z,1016.73
2022-12-03T08:51:05.365Z,1016.71
2022-12-03T08:52:05.337Z,1016.70
2022-12-03T08:53:05.316Z,1016.72
2022-12-03T08:54:05.299Z,1016.72
2022-12-03T08:55:05.256Z,1016.70
2022-12-03T08:56:05.219Z,1016.69
2022-12-03T08:57:05.189Z,1016.72
2022-12-03T08:58:05.164Z,1016.70
2022-12-03T08:59:05.134Z,1016.70
2022-12-03T09:00:05.109Z,1016.70
2022-12-03T09:01:05.132Z,1016.66
2022-12-03T09:02:05.052Z,1016.67
2022-12-03T09:03:05.020Z,1016.68
2022-12-03T09:04:05.026Z,1016.69
2022-12-03T09:05:04.959Z,1016.73
2022-12-03T09:06:04.942Z,1016.72
2022-12-03T09:07:04.904Z,1016.69
2022-12-03T09:08:04.905Z,1016.70
2022-12-03T09:09:06.924Z,1016.72
2022-12-03T09:10:04.844Z,1016.70
2022-12-03T09:11:04.792Z,1016.68
2022-12-03T09:12:04.765Z,1016.69
2022-12-03T09:13:04.737Z,1016.65
2022-12-03T09:14:04.712Z,1016.65
2022-12-03T09:15:04.677Z,1016.67
2022-12-03T09:16:04.686Z,1016.66
2022-12-03T09:17:04.703Z,1016.69
2022-12-03T09:18:04.592Z,1016.64
2022-12-03T09:19:04.561Z,1016.67
2022-12-03T09:20:04.537Z,1016.63
2022-12-03T09:21:04.507Z,1016.64
2022-12-03T09:22:04.479Z,1016.66
2022-12-03T09:23:04.448Z,1016.63
2022-12-03T09:24:04.421Z,1016.63
2022-12-03T09:25:04.424Z,1016.65
2022-12-03T09:26:04.385Z,1016.62
2022-12-03T09:27:04.329Z,1016.64
2022-12-03T09:28:04.305Z,1016.66
2022-12-03T09:29:08.900Z,1016.67
2022-12-03T09:30:04.256Z,1016.66
2022-12-03T09:31:04.218Z,1016.67
2022-12-03T09:32:04.328Z,1016.72
2022-12-03T09:33:04.163Z,1016.66
2022-12-03T09:34:04.137Z,1016.72
2022-12-03T09:35:04.103Z,1016.71
2022-12-03T09:36:04.082Z,1016.69
2022-12-03T09:37:04.046Z,1016.70
2022-12-03T09:38:04.033Z,1016.72
2022-12-03T09:39:03.990Z,1016.71
2022-12-03T09:40:03.968Z,1016.67
2022-12-03T09:41:03.937Z,1016.69
2022-12-03T09:42:03.929Z,1016.66
2022-12-03T09:43:03.879Z,1016.66
2022-12-03T09:44:05.208Z,1016.63
2022-12-03T09:45:03.815Z,1016.63
2022-12-03T09:46:03.908Z,1016.65
2022-12-03T09:47:03.763Z,1016.63
2022-12-03T09:48:03.736Z,1016.61
2022-12-03T09:49:03.700Z,1016.56
2022-12-03T09:50:03.674Z,1016.57
2022-12-03T09:51:03.646Z,1016.55
2022-12-03T09:52:03.620Z,1016.53
2022-12-03T09:53:03.590Z,1016.55
2022-12-03T09:54:03.558Z,1016.54
2022-12-03T09:55:03.532Z,1016.55
2022-12-03T09:56:03.505Z,1016.55
2022-12-03T09:57:03.467Z,1016.51
2022-12-03T09:58:03.465Z,1016.51
2022-12-03T09:59:03.420Z,1016.50
2022-12-03T10:00:03.386Z,1016.46
2022-12-03T10:01:03.434Z,1016.46
2022-12-03T10:02:03.410Z,1016.46
2022-12-03T10:03:03.301Z,1016.45
2022-12-03T10:04:03.355Z,1016.46
2022-12-03T10:05:03.351Z,1016.45
2022-12-03T10:06:03.222Z,1016.42
2022-12-03T10:07:03.185Z,1016.39
2022-12-03T10:08:03.242Z,1016.41
2022-12-03T10:09:03.125Z,1016.41
2022-12-03T10:10:03.101Z,1016.38
2022-12-03T10:11:03.073Z,1016.35
2022-12-03T10:12:03.047Z,1016.34
2022-12-03T10:13:03.013Z,1016.35
2022-12-03T10:14:03.005Z,1016.33
2022-12-03T10:15:02.960Z,1016.35
2022-12-03T10:16:02.926Z,1016.34
2022-12-03T10:17:02.944Z,1016.33
2022-12-03T10:18:02.873Z,1016.33
2022-12-03T10:19:02.849Z,1016.33
2022-12-03T10:20:02.816Z,1016.37
2022-12-03T10:21:02.784Z,1016.34
2022-12-03T10:22:02.755Z,1016.33
2022-12-03T10:23:02.726Z,1016.30
2022-12-03T10:24:02.701Z,1016.31
2022-12-03T10:25:02.664Z,1016.30
2022-12-03T10:26:02.641Z,1016.30
2022-12-03T10:27:02.613Z,1016.26
2022-12-03T10:28:02.591Z,1016.25
2022-12-03T10:29:02.549Z,1016.26
2022-12-03T10:30:02.548Z,1016.27
2022-12-03T10:31:02.631Z,1016.24
2022-12-03T10:32:02.469Z,1016.26
2022-12-03T10:33:02.449Z,1016.27
2022-12-03T10:34:02.412Z,1016.25
2022-12-03T10:35:02.380Z,1016.25
2022-12-03T10:36:02.357Z,1016.22
2022-12-03T10:37:02.330Z,1016.18
2022-12-03T10:38:02.303Z,1016.19
2022-12-03T10:39:02.270Z,1016.17
2022-12-03T10:40:02.249Z,1016.18
2022-12-03T10:41:02.208Z,1016.14
2022-12-03T10:42:02.187Z,1016.10
2022-12-03T10:43:02.153Z,1016.10
2022-12-03T10:44:02.129Z,1016.12
2022-12-03T10:45:02.098Z,1016.10
2022-12-03T10:46:04.405Z,1016.10
2022-12-03T10:47:02.138Z,1016.08
2022-12-03T10:48:02.014Z,1016.06
2022-12-03T10:49:01.987Z,1016.05
2022-12-03T10:50:01.960Z,1016.03
2022-12-03T10:51:01.924Z,1016.02
2022-12-03T10:52:01.903Z,1016.02
2022-12-03T10:53:01.871Z,1015.95
2022-12-03T10:54:01.857Z,1015.95
2022-12-03T10:55:01.810Z,1015.91
2022-12-03T10:56:01.781Z,1015.93
2022-12-03T10:57:01.753Z,1015.96
2022-12-03T10:58:01.726Z,1015.92
2022-12-03T10:59:01.695Z,1015.90
2022-12-03T11:00:01.671Z,1015.90
2022-12-03T11:01:01.700Z,1015.89
2022-12-03T11:02:01.738Z,1015.89
2022-12-03T11:03:01.578Z,1015.86
2022-12-03T11:04:01.586Z,1015.90
2022-12-03T11:05:01.527Z,1015.87
2022-12-03T11:06:01.494Z,1015.91
2022-12-03T11:07:01.463Z,1015.91
2022-12-03T11:08:01.550Z,1015.86
2022-12-03T11:09:06.959Z,1015.89
2022-12-03T11:10:01.384Z,1015.83
2022-12-03T11:11:01.364Z,1015.84
2022-12-03T11:12:01.324Z,1015.79
2022-12-03T11:13:01.297Z,1015.78
2022-12-03T11:14:01.264Z,1015.81
2022-12-03T11:15:01.235Z,1015.77
2022-12-03T11:16:01.268Z,1015.76
2022-12-03T11:17:01.185Z,1015.73
2022-12-03T11:18:01.174Z,1015.78
2022-12-03T11:19:01.152Z,1015.77
2022-12-03T11:20:01.099Z,1015.72
2022-12-03T11:21:01.064Z,1015.72
2022-12-03T11:22:01.037Z,1015.72
2022-12-03T11:23:01.009Z,1015.69
2022-12-03T11:24:00.981Z,1015.63
2022-12-03T11:25:00.956Z,1015.69
2022-12-03T11:26:00.921Z,1015.67
2022-12-03T11:27:00.895Z,1015.70
2022-12-03T11:28:00.869Z,1015.65
2022-12-03T11:29:00.836Z,1015.64
2022-12-03T11:30:00.819Z,1015.62
2022-12-03T11:31:00.816Z,1015.62
2022-12-03T11:32:00.755Z,1015.59
2022-12-03T11:33:00.726Z,1015.57
2022-12-03T11:34:00.716Z,1015.54
2022-12-03T11:35:00.665Z,1015.50
2022-12-03T11:36:00.635Z,1015.49
2022-12-03T11:37:02.015Z,1015.50
2022-12-03T11:38:00.580Z,1015.48
2022-12-03T11:39:00.549Z,1015.47
2022-12-03T11:40:00.522Z,1015.48
2022-12-03T11:41:00.488Z,1015.47
2022-12-03T11:42:00.567Z,1015.49
2022-12-03T11:43:00.435Z,1015.48
2022-12-03T11:44:00.406Z,1015.50
2022-12-03T11:45:00.387Z,1015.51
2022-12-03T11:46:04.294Z,1015.46
2022-12-03T11:47:00.410Z,1015.45
2022-12-03T11:48:00.296Z,1015.45
2022-12-03T11:49:00.256Z,1015.43
2022-12-03T11:50:00.259Z,1015.43
2022-12-03T11:51:00.205Z,1015.44
2022-12-03T11:52:00.176Z,1015.45
2022-12-03T11:53:00.147Z,1015.46
2022-12-03T11:54:00.124Z,1015.46
2022-12-03T11:55:00.085Z,1015.49
2022-12-03T11:56:04.134Z,1015.49
2022-12-03T11:57:00.031Z,1015.50
2022-12-03T11:58:00.006Z,1015.46
2022-12-03T11:58:59.975Z,1015.48
2022-12-03T11:59:59.952Z,1015.48
2022-12-03T12:00:59.922Z,1015.46
2022-12-03T12:01:59.941Z,1015.47
2022-12-03T12:02:59.955Z,1015.47
2022-12-03T12:03:59.907Z,1015.49
2022-12-03T12:04:59.800Z,1015.45